createdAt,value
2023-04-30T00:02:08.620Z,12.60
2023-04-30T00:04:37.743Z,12.63
2023-04-30T00:07:11.463Z,12.64
2023-04-30T00:09:37.933Z,12.64
2023-04-30T00:12:07.035Z,12.65
2023-04-30T00:14:35.902Z,12.64
2023-04-30T00:17:05.237Z,12.62
2023-04-30T00:19:32.176Z,12.63
2023-04-30T00:22:00.960Z,12.63
2023-04-30T00:24:28.001Z,12.64
2023-04-30T00:26:54.465Z,12.64
2023-04-30T00:29:23.566Z,12.62
2023-04-30T00:31:50.381Z,12.55
2023-04-30T00:34:17.199Z,12.52
2023-04-30T00:36:46.424Z,12.46
2023-04-30T00:39:16.056Z,12.40
2023-04-30T00:41:45.438Z,12.37
2023-04-30T00:44:12.377Z,12.27
2023-04-30T00:46:39.100Z,12.17
2023-04-30T00:49:05.971Z,12.04
2023-04-30T00:51:36.427Z,11.90
2023-04-30T00:54:07.644Z,11.78
2023-04-30T00:56:34.583Z,11.71
2023-04-30T00:59:01.713Z,11.55
2023-04-30T01:01:31.225Z,11.53
2023-04-30T01:03:58.237Z,11.52
2023-04-30T01:06:28.313Z,11.46
2023-04-30T01:08:56.642Z,11.45
2023-04-30T02:41:54.726Z,10.10
2023-04-30T02:44:24.524Z,10.11
2023-04-30T02:46:51.349Z,10.12
2023-04-30T02:49:20.442Z,10.12
2023-04-30T02:51:49.400Z,10.11
2023-04-30T02:54:18.785Z,10.10
2023-04-30T02:56:46.554Z,10.11
2023-04-30T02:59:13.420Z,10.09
2023-04-30T03:01:40.288Z,10.10
2023-04-30T03:04:12.031Z,10.06
2023-04-30T03:06:39.293Z,10.06
2023-04-30T03:09:06.485Z,10.04
2023-04-30T03:11:36.827Z,10.01
2023-04-30T03:14:06.346Z,9.99
2023-04-30T03:16:32.895Z,9.97
2023-04-30T03:18:59.795Z,9.96
2023-04-30T03:21:26.266Z,9.96
2023-04-30T03:23:55.202Z,9.95
2023-04-30T03:26:24.231Z,9.92
2023-04-30T03:28:50.861Z,9.86
2023-04-30T03:31:19.933Z,9.86
2023-04-30T03:33:46.482Z,9.88
2023-04-30T03:36:13.037Z,9.90
2023-04-30T03:38:42.329Z,9.87
2023-04-30T03:41:09.152Z,9.80
2023-04-30T03:43:38.973Z,9.79
2023-04-30T03:46:05.677Z,9.77
2023-04-30T03:48:32.235Z,9.77
2023-04-30T03:51:04.070Z,9.68
2023-04-30T03:53:32.873Z,9.65
2023-04-30T03:55:59.715Z,9.60
2023-04-30T03:58:30.077Z,9.60
2023-04-30T04:00:56.861Z,9.58
2023-04-30T04:03:26.808Z,9.54
2023-04-30T04:05:53.484Z,9.53
2023-04-30T04:08:21.196Z,9.52
2023-04-30T04:10:52.790Z,9.49
2023-04-30T04:13:21.954Z,9.42
2023-04-30T04:15:51.734Z,9.43
2023-04-30T04:18:18.393Z,9.39
2023-04-30T04:20:47.262Z,9.37
2023-04-30T04:23:14.095Z,9.36
2023-04-30T04:25:43.917Z,9.34
2023-04-30T04:28:10.926Z,9.31
2023-04-30T04:30:39.418Z,9.32
2023-04-30T04:33:08.654Z,9.32
2023-04-30T04:35:38.404Z,9.32
2023-04-30T04:38:05.858Z,9.29
2023-04-30T04:40:32.795Z,9.27
2023-04-30T04:42:59.775Z,9.27
2023-04-30T04:45:26.610Z,9.27
2023-04-30T04:47:53.702Z,9.26
2023-04-30T04:50:25.708Z,9.26
2023-04-30T04:52:54.919Z,9.24
2023-04-30T04:55:32.587Z,9.21
2023-04-30T04:58:02.527Z,9.21
2023-04-30T05:00:30.902Z,9.20
2023-04-30T05:03:04.309Z,9.19
2023-04-30T05:05:36.504Z,9.16
2023-04-30T05:08:03.360Z,9.19
2023-04-30T05:10:30.728Z,9.21
2023-04-30T05:12:59.806Z,9.33
2023-04-30T05:15:26.673Z,9.47
2023-04-30T05:17:55.691Z,9.62
2023-04-30T05:20:24.992Z,9.77
2023-04-30T05:22:51.457Z,10.00
2023-04-30T05:25:20.328Z,10.20
2023-04-30T05:27:49.190Z,10.43
2023-04-30T05:30:18.577Z,10.67
2023-04-30T05:32:50.057Z,10.87
2023-04-30T05:35:19.844Z,11.08
2023-04-30T05:37:46.520Z,11.21
2023-04-30T05:40:15.968Z,11.25
2023-04-30T05:42:45.306Z,11.37
2023-04-30T05:45:14.022Z,11.46
2023-04-30T05:47:40.944Z,11.45
2023-04-30T05:50:11.260Z,11.53
2023-04-30T05:52:40.523Z,11.64
2023-04-30T05:55:12.173Z,11.73
2023-04-30T05:57:44.031Z,11.67
2023-04-30T06:00:11.859Z,11.71
2023-04-30T06:02:41.782Z,11.78
2023-04-30T06:05:08.569Z,11.72
2023-04-30T06:07:35.669Z,11.79
2023-04-30T06:10:05.241Z,11.87
2023-04-30T06:12:34.360Z,11.96
2023-04-30T06:15:00.874Z,12.04
2023-04-30T06:17:29.850Z,12.06
2023-04-30T06:20:01.639Z,12.10
2023-04-30T06:22:29.938Z,12.19
2023-04-30T06:24:58.948Z,12.23
2023-04-30T06:27:31.646Z,12.30
2023-04-30T06:30:00.738Z,12.31
2023-04-30T06:32:30.359Z,12.35
2023-04-30T06:35:00.572Z,12.42
2023-04-30T06:37:27.403Z,12.53
2023-04-30T06:39:54.305Z,12.59
2023-04-30T06:42:21.418Z,12.61
2023-04-30T06:44:50.604Z,12.68
2023-04-30T06:47:20.096Z,12.80
2023-04-30T06:49:48.946Z,12.89
2023-04-30T06:52:15.373Z,12.71
2023-04-30T06:54:44.272Z,12.81
2023-04-30T06:57:12.004Z,12.92
2023-04-30T06:59:41.083Z,12.98
2023-04-30T07:02:12.240Z,13.00
2023-04-30T07:04:38.863Z,13.18
2023-04-30T07:07:08.246Z,13.33
2023-04-30T07:09:34.799Z,13.54
2023-04-30T07:12:03.346Z,13.77
2023-04-30T07:14:32.629Z,13.82
2023-04-30T07:16:59.955Z,13.85
2023-04-30T07:19:26.569Z,13.78
2023-04-30T07:21:53.342Z,13.76
2023-04-30T07:24:26.903Z,13.74
2023-04-30T07:26:56.181Z,13.86
2023-04-30T07:29:22.788Z,13.94
2023-04-30T07:31:52.745Z,14.07
2023-04-30T07:34:21.948Z,13.98
2023-04-30T07:36:51.097Z,13.99
2023-04-30T07:39:17.916Z,14.12
2023-04-30T07:41:44.767Z,14.18
2023-04-30T07:44:11.731Z,14.33
2023-04-30T07:46:38.475Z,14.47
2023-04-30T07:49:10.341Z,14.49
2023-04-30T07:51:37.195Z,14.26
2023-04-30T07:54:04.278Z,14.27
2023-04-30T07:56:31.345Z,14.27
2023-04-30T07:58:58.071Z,14.47
2023-04-30T08:01:25.547Z,14.52
2023-04-30T08:03:52.358Z,14.57
2023-04-30T08:06:22.192Z,14.64
2023-04-30T08:08:50.452Z,14.75
2023-04-30T08:11:17.374Z,14.88
2023-04-30T08:13:44.000Z,15.06
2023-04-30T08:16:12.862Z,15.16
2023-04-30T08:18:43.341Z,15.34
2023-04-30T08:21:11.248Z,15.50
2023-04-30T08:23:37.893Z,15.49
2023-04-30T08:26:04.795Z,15.51
2023-04-30T08:28:31.514Z,15.38
2023-04-30T08:30:58.355Z,15.40
2023-04-30T08:33:25.501Z,15.45
2023-04-30T08:35:54.460Z,15.32
2023-04-30T08:38:23.026Z,15.07
2023-04-30T08:41:02.408Z,15.06
2023-04-30T08:43:30.253Z,15.06
2023-04-30T08:45:57.966Z,15.13
2023-04-30T08:48:27.511Z,15.17
2023-04-30T08:50:54.309Z,15.15
2023-04-30T08:53:21.715Z,15.25
2023-04-30T08:55:53.751Z,15.37
2023-04-30T08:58:20.622Z,15.36
2023-04-30T09:00:49.526Z,15.43
2023-04-30T09:03:16.517Z,15.34
2023-04-30T09:05:48.767Z,15.33
2023-04-30T09:08:21.063Z,15.42
2023-04-30T09:10:47.898Z,15.54
2023-04-30T09:13:17.141Z,15.59
2023-04-30T09:15:51.393Z,15.52
2023-04-30T09:18:23.011Z,15.53
2023-04-30T09:21:01.393Z,15.58
2023-04-30T09:23:29.363Z,15.76
2023-04-30T09:25:56.506Z,15.86
2023-04-30T09:28:25.846Z,16.04
2023-04-30T09:30:56.301Z,16.21
2023-04-30T09:33:30.016Z,16.34
2023-04-30T09:35:56.896Z,16.19
2023-04-30T09:38:34.714Z,16.19
2023-04-30T09:41:04.073Z,16.16
2023-04-30T09:43:33.399Z,16.01
2023-04-30T09:46:03.035Z,16.08
2023-04-30T09:48:32.332Z,16.03
2023-04-30T09:51:02.841Z,16.09
2023-04-30T09:53:32.857Z,16.08
2023-04-30T09:56:02.365Z,16.11
2023-04-30T09:58:31.944Z,16.07
2023-04-30T10:01:01.445Z,16.10
2023-04-30T10:03:30.951Z,15.87
2023-04-30T10:06:00.458Z,15.88
2023-04-30T10:08:28.175Z,15.89
2023-04-30T10:11:04.392Z,15.84
2023-04-30T10:13:37.217Z,15.79
2023-04-30T10:16:11.224Z,15.70
2023-04-30T10:18:40.093Z,15.57
2023-04-30T10:21:12.967Z,15.77
2023-04-30T10:23:42.805Z,15.84
2023-04-30T10:26:12.640Z,15.99
2023-04-30T10:28:43.406Z,16.12
2023-04-30T10:31:13.762Z,16.20
2023-04-30T10:33:59.759Z,16.16
2023-04-30T10:36:35.889Z,16.16
2023-04-30T10:39:03.025Z,16.18
2023-04-30T10:41:30.801Z,16.12
2023-04-30T10:44:06.855Z,16.07
2023-04-30T10:46:37.093Z,15.99
2023-04-30T10:49:07.081Z,15.98
2023-04-30T10:51:51.266Z,16.03
2023-04-30T10:54:34.084Z,15.97
2023-04-30T10:57:13.515Z,16.04
2023-04-30T10:59:47.719Z,16.11
2023-04-30T11:02:19.665Z,15.83
2023-04-30T11:05:08.232Z,15.81
2023-04-30T11:07:46.328Z,15.70
2023-04-30T11:10:13.893Z,15.70
2023-04-30T11:12:47.509Z,15.87
2023-04-30T11:15:19.801Z,15.94
2023-04-30T11:17:56.504Z,16.02
2023-04-30T11:20:24.942Z,16.11
2023-04-30T11:23:25.337Z,16.18
2023-04-30T11:26:08.011Z,16.22
2023-04-30T11:28:39.041Z,16.26
2023-04-30T11:31:08.214Z,16.32
2023-04-30T11:33:35.338Z,16.30
2023-04-30T11:36:02.073Z,16.34
2023-04-30T11:38:36.408Z,16.27
2023-04-30T11:41:04.456Z,16.23
2023-04-30T11:43:31.946Z,16.24
2023-04-30T11:46:11.805Z,16.35
2023-04-30T11:48:43.915Z,16.34
2023-04-30T11:51:19.881Z,16.32
2023-04-30T11:53:50.146Z,16.31
2023-04-30T11:56:30.140Z,16.18
2023-04-30T11:58:59.281Z,16.14
2023-04-30T12:01:29.266Z,16.06
2023-04-30T12:03:56.723Z,16.05
2023-04-30T12:06:26.736Z,16.08
2023-04-30T12:09:06.469Z,16.04
2023-04-30T12:11:34.219Z,16.01
2023-04-30T12:14:03.129Z,15.87
2023-04-30T12:16:39.036Z,15.83
2023-04-30T12:19:09.002Z,15.74
2023-04-30T12:21:36.014Z,15.75
2023-04-30T12:24:04.855Z,15.58
2023-04-30T12:26:40.523Z,15.58
2023-04-30T12:29:15.644Z,15.60
2023-04-30T12:31:48.410Z,15.57
2023-04-30T12:34:15.508Z,15.49
2023-04-30T12:36:44.860Z,15.30
2023-04-30T12:39:15.302Z,15.22
2023-04-30T12:41:49.022Z,15.25
2023-04-30T12:44:23.841Z,15.22
2023-04-30T12:46:56.593Z,15.20
2023-04-30T12:49:24.586Z,15.17
2023-04-30T12:51:51.387Z,15.17
2023-04-30T12:54:28.393Z,15.17
2023-04-30T12:57:00.697Z,15.17
2023-04-30T12:59:35.218Z,15.19
2023-04-30T13:02:06.100Z,15.16
2023-04-30T13:04:35.512Z,15.00
2023-04-30T13:07:05.039Z,14.97
2023-04-30T15:06:57.634Z,14.69
2023-04-30T15:09:24.275Z,14.69
2023-04-30T15:11:50.757Z,14.68
2023-04-30T15:14:19.535Z,14.67
2023-04-30T15:16:48.589Z,14.67
2023-04-30T15:19:17.496Z,14.67
2023-04-30T15:21:43.954Z,14.66
2023-04-30T15:24:13.213Z,14.63
2023-04-30T15:26:44.825Z,14.64
2023-04-30T15:29:14.038Z,14.58
2023-04-30T15:31:40.672Z,14.60
2023-04-30T15:34:11.787Z,14.58
2023-04-30T15:36:40.775Z,14.55
2023-04-30T15:39:07.278Z,14.51
2023-04-30T15:41:38.709Z,14.50
2023-04-30T15:44:05.307Z,14.45
2023-04-30T15:46:36.738Z,14.37
2023-04-30T15:49:10.906Z,14.39
2023-04-30T15:51:38.047Z,14.41
2023-04-30T15:54:06.874Z,14.43
2023-04-30T15:56:35.309Z,14.47
2023-04-30T15:59:02.194Z,14.42
2023-04-30T16:01:28.743Z,14.38
2023-04-30T16:03:55.868Z,14.35
2023-04-30T16:06:25.535Z,14.32
2023-04-30T16:08:53.128Z,14.31
2023-04-30T16:11:23.400Z,14.25
2023-04-30T16:13:53.794Z,14.22
2023-04-30T16:16:20.378Z,14.20
2023-04-30T16:18:47.158Z,14.17
2023-04-30T16:21:13.795Z,14.16
2023-04-30T16:23:43.067Z,14.17
2023-04-30T16:26:10.099Z,14.15
2023-04-30T16:28:38.865Z,14.14
2023-04-30T16:31:05.618Z,14.12
2023-04-30T16:33:34.662Z,14.09
2023-04-30T16:36:01.562Z,14.06
2023-04-30T16:38:30.444Z,14.00
2023-04-30T16:40:57.449Z,14.01
2023-04-30T16:43:24.412Z,13.99
2023-04-30T16:45:52.153Z,14.00
2023-04-30T16:48:18.714Z,13.97
2023-04-30T16:50:50.179Z,13.98
2023-04-30T16:53:21.622Z,13.95
2023-04-30T16:55:51.843Z,13.92
2023-04-30T16:58:20.631Z,13.93
2023-04-30T17:00:49.260Z,13.88
2023-04-30T17:03:18.476Z,13.87
2023-04-30T17:05:50.296Z,13.91
2023-04-30T17:08:16.786Z,13.93
2023-04-30T17:10:46.907Z,13.92
2023-04-30T17:13:15.932Z,13.90
2023-04-30T17:15:42.772Z,13.86
2023-04-30T17:18:12.320Z,13.86
2023-04-30T17:20:41.460Z,13.84
2023-04-30T17:23:07.999Z,13.80
2023-04-30T17:25:40.180Z,13.74
2023-04-30T17:28:09.026Z,13.75
2023-04-30T17:30:35.726Z,13.76
2023-04-30T17:33:03.805Z,13.75
2023-04-30T17:35:33.277Z,13.75
2023-04-30T17:38:02.327Z,13.72
2023-04-30T17:40:30.745Z,13.69
2023-04-30T17:42:59.928Z,13.65
2023-04-30T17:45:27.215Z,13.64
2023-04-30T17:47:54.560Z,13.63
2023-04-30T17:50:21.580Z,13.60
2023-04-30T17:52:52.594Z,13.57
2023-04-30T17:55:23.106Z,13.55
2023-04-30T17:57:50.097Z,13.50
2023-04-30T18:00:17.648Z,13.48
2023-04-30T18:02:45.229Z,13.45
2023-04-30T18:05:12.002Z,13.45
2023-04-30T18:07:43.526Z,13.45
2023-04-30T18:10:19.392Z,13.43
2023-04-30T18:12:46.440Z,13.42
2023-04-30T18:15:14.477Z,13.40
2023-04-30T18:17:41.689Z,13.38
2023-04-30T18:20:08.783Z,13.35
2023-04-30T18:22:42.517Z,13.32
2023-04-30T18:25:10.567Z,13.26
2023-04-30T18:27:40.325Z,13.19
2023-04-30T18:30:12.198Z,13.11
2023-04-30T18:32:40.964Z,13.06
2023-04-30T18:35:08.287Z,13.02
2023-04-30T18:37:35.050Z,12.98
2023-04-30T18:40:10.066Z,12.93
2023-04-30T18:42:37.843Z,12.88
2023-04-30T18:45:08.892Z,12.83
2023-04-30T18:47:39.710Z,12.77
2023-04-30T18:50:22.548Z,12.71
2023-04-30T18:52:58.589Z,12.65
2023-04-30T18:55:25.393Z,12.60
2023-04-30T18:57:52.225Z,12.57
2023-04-30T19:00:18.956Z,12.53
2023-04-30T19:02:45.740Z,12.51
2023-04-30T19:05:15.124Z,12.47
2023-04-30T19:07:46.049Z,12.41
2023-04-30T19:10:12.568Z,12.36
2023-04-30T19:12:39.922Z,12.32
2023-04-30T19:15:07.429Z,12.28
2023-04-30T19:17:34.544Z,12.23
2023-04-30T19:20:06.892Z,12.20
2023-04-30T19:22:35.265Z,12.16
2023-04-30T19:25:02.081Z,12.12
2023-04-30T19:27:33.819Z,12.06
2023-04-30T19:30:03.324Z,12.02
2023-04-30T19:32:30.246Z,11.97
2023-04-30T19:35:01.291Z,11.93
2023-04-30T19:37:28.129Z,11.88
2023-04-30T19:39:56.828Z,11.83
2023-04-30T19:42:26.116Z,11.77
2023-04-30T19:44:57.416Z,11.73
2023-04-30T19:47:25.357Z,11.68
2023-04-30T19:49:52.792Z,11.63
2023-04-30T19:52:19.964Z,11.57
2023-04-30T19:54:49.365Z,11.53
2023-04-30T19:57:21.214Z,11.49
2023-04-30T19:59:47.801Z,11.45
2023-04-30T20:02:14.472Z,11.39
2023-04-30T20:04:43.704Z,11.36
2023-04-30T20:07:10.192Z,11.32
2023-04-30T20:09:40.210Z,11.29
2023-04-30T20:12:09.310Z,11.26
2023-04-30T20:14:41.290Z,11.24
2023-04-30T20:17:08.233Z,11.20
2023-04-30T20:19:34.978Z,11.16
2023-04-30T20:22:12.309Z,11.12
2023-04-30T20:24:45.199Z,11.08
2023-04-30T20:27:13.968Z,11.03
2023-04-30T20:29:45.172Z,10.99
2023-04-30T20:32:11.754Z,10.95
2023-04-30T20:34:41.027Z,10.92
2023-04-30T20:37:09.743Z,10.88
2023-04-30T20:39:42.306Z,10.85
2023-04-30T20:42:13.519Z,10.81
2023-04-30T20:44:40.010Z,10.79
2023-04-30T20:47:08.247Z,10.77
2023-04-30T20:49:37.033Z,10.74
2023-04-30T20:52:04.393Z,10.71
2023-04-30T20:54:31.204Z,10.68
2023-04-30T20:56:57.749Z,10.63
2023-04-30T20:59:24.294Z,10.61
2023-04-30T21:01:51.241Z,10.57
2023-04-30T21:04:18.217Z,10.52
2023-04-30T21:06:45.141Z,10.48
2023-04-30T21:09:14.060Z,10.44
2023-04-30T21:11:41.568Z,10.40
2023-04-30T21:14:08.741Z,10.36
2023-04-30T21:16:35.614Z,10.31
2023-04-30T21:19:02.823Z,10.29
2023-04-30T21:21:29.550Z,10.25
2023-04-30T21:24:01.621Z,10.22
2023-04-30T21:26:30.742Z,10.21
2023-04-30T21:28:59.582Z,10.17
2023-04-30T21:31:27.200Z,10.13
2023-04-30T21:33:56.466Z,10.12
2023-04-30T21:36:29.385Z,10.09
2023-04-30T21:38:58.746Z,10.07
2023-04-30T21:41:27.245Z,10.05
2023-04-30T21:43:56.566Z,10.00
2023-04-30T21:46:23.579Z,9.97
2023-04-30T21:48:53.091Z,9.93
2023-04-30T21:51:21.813Z,9.89
2023-04-30T21:53:50.275Z,9.85
2023-04-30T21:56:21.605Z,9.83
2023-04-30T21:58:48.374Z,9.79
2023-04-30T22:01:17.588Z,9.78
2023-04-30T22:03:46.907Z,9.75
2023-04-30T22:06:13.523Z,9.72
2023-04-30T22:08:40.458Z,9.65
2023-04-30T22:11:09.759Z,9.62
2023-04-30T22:13:36.463Z,9.59
2023-04-30T22:16:05.598Z,9.55
2023-04-30T22:18:39.550Z,9.51
2023-04-30T22:21:13.459Z,9.50
2023-04-30T22:23:40.003Z,9.46
2023-04-30T22:26:10.677Z,9.45
2023-04-30T22:28:41.940Z,9.39
2023-04-30T22:31:13.627Z,9.35
2023-04-30T22:33:43.915Z,9.29
2023-04-30T22:36:15.404Z,9.26
2023-04-30T22:38:41.968Z,9.23
2023-04-30T22:41:13.498Z,9.20
2023-04-30T22:43:40.577Z,9.20
2023-04-30T22:46:10.051Z,9.17
2023-04-30T22:48:39.271Z,9.13
2023-04-30T22:51:13.390Z,9.09
2023-04-30T22:53:39.846Z,9.03
2023-04-30T22:56:06.498Z,8.98
2023-04-30T22:58:32.886Z,8.93
2023-04-30T23:01:01.820Z,8.87
2023-04-30T23:03:28.256Z,8.83
2023-04-30T23:05:57.762Z,8.78
2023-04-30T23:08:24.214Z,8.75
2023-04-30T23:10:54.843Z,8.73
2023-04-30T23:13:22.211Z,8.72
2023-04-30T23:15:49.009Z,8.66
2023-04-30T23:18:15.553Z,8.60
2023-04-30T23:20:44.514Z,8.59
2023-04-30T23:23:13.894Z,8.56
2023-04-30T23:25:40.664Z,8.52
2023-04-30T23:28:09.927Z,8.49
2023-04-30T23:30:39.459Z,8.45
2023-04-30T23:33:06.129Z,8.44
2023-04-30T23:35:32.658Z,8.41
2023-04-30T23:37:59.127Z,8.35
2023-04-30T23:40:27.941Z,8.33
2023-04-30T23:42:56.828Z,8.29
2023-04-30T23:45:23.518Z,8.25
2023-04-30T23:47:52.429Z,8.23
2023-04-30T23:50:18.986Z,8.18
2023-04-30T23:52:45.561Z,8.18
2023-04-30T23:55:12.105Z,8.15
2023-04-30T23:57:41.831Z,8.15
